You are listening to:
RJTT Del/Ground - Tokyo, Japan

RJTT 251430Z 03009KT CAVOK 19/17 Q1010 NOSIG RMK A2983

If stream doesn't start automatically press the play button
If stream stops then reload player then press play